sensor_id;sensor_type;location;lat;lon;timestamp;pressure;altitude;pressure_sealevel;temperature;humidity
22333;BME280;11334;36.986;-121.936;2023-05-24T00:01:31;100890.50;;;19.23;68.45
22333;BME280;11334;36.986;-121.936;2023-05-24T00:03:58;100892.78;;;19.19;68.44
22333;BME280;11334;36.986;-121.936;2023-05-24T00:06:26;100883.25;;;19.17;68.37
22333;BME280;11334;36.986;-121.936;2023-05-24T00:08:53;100884.09;;;19.11;68.71
22333;BME280;11334;36.986;-121.936;2023-05-24T00:11:19;100886.78;;;19.11;68.52
22333;BME280;11334;36.986;-121.936;2023-05-24T00:13:47;100888.44;;;18.99;68.83
22333;BME280;11334;36.986;-121.936;2023-05-24T00:16:14;100886.81;;;18.98;68.53
22333;BME280;11334;36.986;-121.936;2023-05-24T00:18:40;100882.44;;;18.91;69.45
22333;BME280;11334;36.986;-121.936;2023-05-24T00:21:12;100885.53;;;18.88;69.79
22333;BME280;11334;36.986;-121.936;2023-05-24T00:23:39;100887.38;;;18.81;70.70
22333;BME280;11334;36.986;-121.936;2023-05-24T00:26:07;100886.97;;;18.84;71.08
22333;BME280;11334;36.986;-121.936;2023-05-24T00:28:34;100882.00;;;18.81;70.86
22333;BME280;11334;36.986;-121.936;2023-05-24T00:31:01;100870.84;;;18.77;70.58
22333;BME280;11334;36.986;-121.936;2023-05-24T00:33:27;100878.09;;;18.83;69.73
22333;BME280;11334;36.986;-121.936;2023-05-24T00:35:54;100882.44;;;18.78;70.00
22333;BME280;11334;36.986;-121.936;2023-05-24T00:38:24;100871.25;;;18.74;69.06
22333;BME280;11334;36.986;-121.936;2023-05-24T00:40:51;100867.34;;;18.70;68.44
22333;BME280;11334;36.986;-121.936;2023-05-24T00:43:17;100858.22;;;18.65;68.76
22333;BME280;11334;36.986;-121.936;2023-05-24T00:45:44;100863.59;;;18.65;68.02
22333;BME280;11334;36.986;-121.936;2023-05-24T00:48:10;100868.34;;;18.57;68.37
22333;BME280;11334;36.986;-121.936;2023-05-24T00:50:38;100867.31;;;18.58;68.75
22333;BME280;11334;36.986;-121.936;2023-05-24T00:53:06;100862.78;;;18.52;69.44
22333;BME280;11334;36.986;-121.936;2023-05-24T00:55:35;100865.03;;;18.48;69.53
22333;BME280;11334;36.986;-121.936;2023-05-24T00:58:02;100862.75;;;18.45;70.03
22333;BME280;11334;36.986;-121.936;2023-05-24T01:00:28;100859.63;;;18.35;70.74
22333;BME280;11334;36.986;-121.936;2023-05-24T01:02:54;100861.72;;;18.34;70.52
22333;BME280;11334;36.986;-121.936;2023-05-24T01:05:21;100868.53;;;18.36;70.84
22333;BME280;11334;36.986;-121.936;2023-05-24T01:11:11;100862.69;;;18.20;71.36
22333;BME280;11334;36.986;-121.936;2023-05-24T01:13:53;100850.91;;;18.08;71.64
22333;BME280;11334;36.986;-121.936;2023-05-24T01:16:28;100855.25;;;18.09;72.10
22333;BME280;11334;36.986;-121.936;2023-05-24T01:19:01;100860.00;;;18.07;72.69
22333;BME280;11334;36.986;-121.936;2023-05-24T01:24:24;100864.47;;;18.00;71.72
22333;BME280;11334;36.986;-121.936;2023-05-24T01:29:33;100862.31;;;17.83;73.26
22333;BME280;11334;36.986;-121.936;2023-05-24T01:32:00;100864.16;;;17.76;73.88
22333;BME280;11334;36.986;-121.936;2023-05-24T01:34:27;100867.66;;;17.76;73.81
22333;BME280;11334;36.986;-121.936;2023-05-24T01:36:53;100863.13;;;17.77;73.68
22333;BME280;11334;36.986;-121.936;2023-05-24T01:39:20;100864.75;;;17.71;74.60
22333;BME280;11334;36.986;-121.936;2023-05-24T01:42:21;100863.09;;;17.64;74.65
22333;BME280;11334;36.986;-121.936;2023-05-24T01:45:15;100862.63;;;17.61;75.29
22333;BME280;11334;36.986;-121.936;2023-05-24T01:47:58;100864.69;;;17.59;76.20
22333;BME280;11334;36.986;-121.936;2023-05-24T01:50:31;100876.78;;;17.48;76.14
22333;BME280;11334;36.986;-121.936;2023-05-24T01:53:03;100868.56;;;17.50;75.91
22333;BME280;11334;36.986;-121.936;2023-05-24T01:55:32;100875.53;;;17.44;76.06
22333;BME280;11334;36.986;-121.936;2023-05-24T01:58:02;100869.56;;;17.49;75.59
22333;BME280;11334;36.986;-121.936;2023-05-24T02:00:30;100866.88;;;17.42;75.32
22333;BME280;11334;36.986;-121.936;2023-05-24T02:02:57;100877.19;;;17.45;74.93
22333;BME280;11334;36.986;-121.936;2023-05-24T02:05:23;100871.34;;;17.36;74.88
22333;BME280;11334;36.986;-121.936;2023-05-24T02:07:50;100872.00;;;17.38;76.41
22333;BME280;11334;36.986;-121.936;2023-05-24T02:10:16;100871.50;;;17.28;75.80
22333;BME280;11334;36.986;-121.936;2023-05-24T02:12:42;100869.03;;;17.26;76.15
22333;BME280;11334;36.986;-121.936;2023-05-24T02:15:09;100875.81;;;17.22;75.65
22333;BME280;11334;36.986;-121.936;2023-05-24T02:17:40;100870.81;;;17.19;76.62
22333;BME280;11334;36.986;-121.936;2023-05-24T02:20:08;100873.25;;;17.14;76.30
22333;BME280;11334;36.986;-121.936;2023-05-24T02:22:35;100870.97;;;17.11;76.91
22333;BME280;11334;36.986;-121.936;2023-05-24T02:25:01;100873.47;;;17.13;77.83
22333;BME280;11334;36.986;-121.936;2023-05-24T02:27:27;100873.47;;;17.13;78.58
22333;BME280;11334;36.986;-121.936;2023-05-24T02:29:54;100860.16;;;16.99;77.72
22333;BME280;11334;36.986;-121.936;2023-05-24T02:32:20;100876.28;;;17.05;77.33
22333;BME280;11334;36.986;-121.936;2023-05-24T02:34:46;100880.78;;;17.05;77.88
22333;BME280;11334;36.986;-121.936;2023-05-24T02:37:13;100884.06;;;17.00;78.47
22333;BME280;11334;36.986;-121.936;2023-05-24T02:39:40;100881.56;;;16.99;78.07
22333;BME280;11334;36.986;-121.936;2023-05-24T02:42:07;100885.63;;;16.95;78.49
22333;BME280;11334;36.986;-121.936;2023-05-24T02:44:36;100883.56;;;16.90;77.85
22333;BME280;11334;36.986;-121.936;2023-05-24T02:47:02;100891.78;;;16.89;77.57
22333;BME280;11334;36.986;-121.936;2023-05-24T02:49:28;100879.41;;;16.88;77.17
22333;BME280;11334;36.986;-121.936;2023-05-24T02:51:55;100883.09;;;16.87;77.40
22333;BME280;11334;36.986;-121.936;2023-05-24T02:54:21;100878.78;;;16.86;78.12
22333;BME280;11334;36.986;-121.936;2023-05-24T02:56:47;100883.88;;;16.81;77.31
22333;BME280;11334;36.986;-121.936;2023-05-24T02:59:14;100887.38;;;16.81;77.35
22333;BME280;11334;36.986;-121.936;2023-05-24T03:01:40;100887.56;;;16.80;76.88
22333;BME280;11334;36.986;-121.936;2023-05-24T03:04:06;100886.69;;;16.73;74.85
22333;BME280;11334;36.986;-121.936;2023-05-24T03:06:33;100894.53;;;16.75;73.90
22333;BME280;11334;36.986;-121.936;2023-05-24T03:08:59;100891.97;;;16.67;74.59
22333;BME280;11334;36.986;-121.936;2023-05-24T03:11:25;100894.84;;;16.65;75.20
22333;BME280;11334;36.986;-121.936;2023-05-24T03:13:51;100891.34;;;16.65;75.51
22333;BME280;11334;36.986;-121.936;2023-05-24T03:16:18;100876.72;;;16.61;75.21
22333;BME280;11334;36.986;-121.936;2023-05-24T03:18:45;100889.88;;;16.62;74.93
22333;BME280;11334;36.986;-121.936;2023-05-24T03:21:11;100890.25;;;16.59;75.29
22333;BME280;11334;36.986;-121.936;2023-05-24T03:23:38;100885.09;;;16.58;74.96
22333;BME280;11334;36.986;-121.936;2023-05-24T03:26:04;100900.97;;;16.59;75.15
22333;BME280;11334;36.986;-121.936;2023-05-24T03:28:32;100892.84;;;16.53;75.39
22333;BME280;11334;36.986;-121.936;2023-05-24T03:30:58;100892.28;;;16.57;75.19
22333;BME280;11334;36.986;-121.936;2023-05-24T03:33:25;100895.19;;;16.56;75.64
22333;BME280;11334;36.986;-121.936;2023-05-24T03:35:51;100897.59;;;16.51;76.19
22333;BME280;11334;36.986;-121.936;2023-05-24T03:38:17;100901.47;;;16.48;75.95
22333;BME280;11334;36.986;-121.936;2023-05-24T03:40:44;100909.56;;;16.55;75.86
22333;BME280;11334;36.986;-121.936;2023-05-24T03:43:10;100904.97;;;16.49;75.80
22333;BME280;11334;36.986;-121.936;2023-05-24T03:45:37;100910.75;;;16.52;74.74
22333;BME280;11334;36.986;-121.936;2023-05-24T03:48:03;100915.22;;;16.45;75.23
22333;BME280;11334;36.986;-121.936;2023-05-24T03:50:29;100914.22;;;16.46;75.39
22333;BME280;11334;36.986;-121.936;2023-05-24T03:52:55;100911.84;;;16.37;75.61
22333;BME280;11334;36.986;-121.936;2023-05-24T03:55:22;100916.38;;;16.37;76.26
22333;BME280;11334;36.986;-121.936;2023-05-24T03:57:48;100909.94;;;16.31;76.64
22333;BME280;11334;36.986;-121.936;2023-05-24T04:00:15;100913.16;;;16.27;77.16
22333;BME280;11334;36.986;-121.936;2023-05-24T04:02:41;100921.28;;;16.33;76.99
22333;BME280;11334;36.986;-121.936;2023-05-24T04:05:07;100920.81;;;16.30;77.63
22333;BME280;11334;36.986;-121.936;2023-05-24T04:07:36;100923.97;;;16.33;76.35
22333;BME280;11334;36.986;-121.936;2023-05-24T04:10:04;100925.34;;;16.29;76.42
22333;BME280;11334;36.986;-121.936;2023-05-24T04:12:31;100927.38;;;16.27;76.76
22333;BME280;11334;36.986;-121.936;2023-05-24T04:14:58;100933.91;;;16.25;77.20
22333;BME280;11334;36.986;-121.936;2023-05-24T04:17:26;100928.78;;;16.23;76.64
22333;BME280;11334;36.986;-121.936;2023-05-24T04:19:54;100925.97;;;16.31;75.50
22333;BME280;11334;36.986;-121.936;2023-05-24T04:22:20;100920.81;;;16.30;75.60
22333;BME280;11334;36.986;-121.936;2023-05-24T04:24:46;100934.56;;;16.27;75.87
22333;BME280;11334;36.986;-121.936;2023-05-24T04:27:13;100932.56;;;16.14;76.35
22333;BME280;11334;36.986;-121.936;2023-05-24T04:29:40;100932.69;;;16.13;76.52
22333;BME280;11334;36.986;-121.936;2023-05-24T04:32:07;100933.28;;;16.09;76.75
22333;BME280;11334;36.986;-121.936;2023-05-24T04:34:34;100926.25;;;16.08;76.67
22333;BME280;11334;36.986;-121.936;2023-05-24T04:37:01;100937.34;;;16.05;77.55
22333;BME280;11334;36.986;-121.936;2023-05-24T04:39:29;100940.59;;;16.14;77.21
22333;BME280;11334;36.986;-121.936;2023-05-24T04:41:55;100942.56;;;16.12;76.37
22333;BME280;11334;36.986;-121.936;2023-05-24T04:44:23;100941.31;;;16.09;76.88
22333;BME280;11334;36.986;-121.936;2023-05-24T04:46:49;100934.56;;;15.98;76.89
22333;BME280;11334;36.986;-121.936;2023-05-24T04:49:15;100944.16;;;15.93;77.70
22333;BME280;11334;36.986;-121.936;2023-05-24T04:51:42;100945.56;;;15.89;78.41
22333;BME280;11334;36.986;-121.936;2023-05-24T04:54:08;100946.00;;;15.92;78.66
22333;BME280;11334;36.986;-121.936;2023-05-24T04:56:35;100947.38;;;15.88;79.19
22333;BME280;11334;36.986;-121.936;2023-05-24T04:59:06;100948.25;;;15.89;79.49
22333;BME280;11334;36.986;-121.936;2023-05-24T05:01:33;100953.75;;;15.87;79.72
22333;BME280;11334;36.986;-121.936;2023-05-24T05:03:59;100948.97;;;15.83;79.89
22333;BME280;11334;36.986;-121.936;2023-05-24T05:06:29;100950.66;;;15.84;80.53
22333;BME280;11334;36.986;-121.936;2023-05-24T05:08:56;100951.53;;;15.91;80.26
22333;BME280;11334;36.986;-121.936;2023-05-24T05:11:22;100965.38;;;15.94;80.11
22333;BME280;11334;36.986;-121.936;2023-05-24T05:13:48;100958.00;;;15.96;79.90
22333;BME280;11334;36.986;-121.936;2023-05-24T05:16:14;100959.22;;;15.94;80.60
22333;BME280;11334;36.986;-121.936;2023-05-24T05:18:41;100966.47;;;16.00;80.04
22333;BME280;11334;36.986;-121.936;2023-05-24T05:21:07;100973.41;;;15.94;80.05
22333;BME280;11334;36.986;-121.936;2023-05-24T05:23:33;100977.34;;;15.98;80.05
22333;BME280;11334;36.986;-121.936;2023-05-24T05:26:00;100974.22;;;15.95;80.29
22333;BME280;11334;36.986;-121.936;2023-05-24T05:28:27;100967.66;;;15.97;80.57
22333;BME280;11334;36.986;-121.936;2023-05-24T05:30:53;100967.78;;;15.89;80.80
22333;BME280;11334;36.986;-121.936;2023-05-24T05:33:21;100969.69;;;15.95;79.71
22333;BME280;11334;36.986;-121.936;2023-05-24T05:35:47;100968.88;;;15.95;79.85
22333;BME280;11334;36.986;-121.936;2023-05-24T05:38:13;100960.13;;;15.86;80.22
22333;BME280;11334;36.986;-121.936;2023-05-24T05:40:40;100972.84;;;15.84;81.03
22333;BME280;11334;36.986;-121.936;2023-05-24T05:43:06;100967.50;;;15.84;80.96
22333;BME280;11334;36.986;-121.936;2023-05-24T05:45:35;100975.50;;;15.84;80.58
22333;BME280;11334;36.986;-121.936;2023-05-24T05:48:01;100968.69;;;15.82;80.54
22333;BME280;11334;36.986;-121.936;2023-05-24T05:50:27;100969.97;;;15.86;80.73
22333;BME280;11334;36.986;-121.936;2023-05-24T05:52:53;100970.34;;;15.83;80.19
22333;BME280;11334;36.986;-121.936;2023-05-24T05:55:20;100968.69;;;15.82;80.54
22333;BME280;11334;36.986;-121.936;2023-05-24T05:57:46;100961.06;;;15.79;80.88
22333;BME280;11334;36.986;-121.936;2023-05-24T06:00:12;100968.78;;;15.74;81.51
22333;BME280;11334;36.986;-121.936;2023-05-24T06:02:39;100967.66;;;15.83;81.19
22333;BME280;11334;36.986;-121.936;2023-05-24T06:05:05;100966.84;;;15.82;80.84
22333;BME280;11334;36.986;-121.936;2023-05-24T06:07:32;100967.50;;;15.84;80.26
22333;BME280;11334;36.986;-121.936;2023-05-24T06:09:58;100965.47;;;15.86;80.81
22333;BME280;11334;36.986;-121.936;2023-05-24T06:12:25;100958.19;;;15.80;80.90
22333;BME280;11334;36.986;-121.936;2023-05-24T06:14:51;100968.88;;;15.80;81.23
22333;BME280;11334;36.986;-121.936;2023-05-24T06:17:17;100965.19;;;15.81;80.98
22333;BME280;11334;36.986;-121.936;2023-05-24T06:19:44;100973.28;;;15.74;81.77
22333;BME280;11334;36.986;-121.936;2023-05-24T06:22:10;100967.13;;;15.73;82.46
22333;BME280;11334;36.986;-121.936;2023-05-24T06:24:37;100950.00;;;15.68;82.60
22333;BME280;11334;36.986;-121.936;2023-05-24T06:27:04;100955.44;;;15.74;81.76
22333;BME280;11334;36.986;-121.936;2023-05-24T06:29:30;100952.56;;;15.76;82.52
22333;BME280;11334;36.986;-121.936;2023-05-24T06:31:57;100947.41;;;15.74;80.88
22333;BME280;11334;36.986;-121.936;2023-05-24T06:34:23;100946.28;;;15.69;81.00
22333;BME280;11334;36.986;-121.936;2023-05-24T06:36:49;100945.47;;;15.68;82.55
22333;BME280;11334;36.986;-121.936;2023-05-24T06:39:17;100939.84;;;15.63;83.59
22333;BME280;11334;36.986;-121.936;2023-05-24T06:41:44;100950.91;;;15.60;84.08
22333;BME280;11334;36.986;-121.936;2023-05-24T06:44:11;100942.34;;;15.65;83.90
22333;BME280;11334;36.986;-121.936;2023-05-24T06:46:38;100943.34;;;15.64;83.75
22333;BME280;11334;36.986;-121.936;2023-05-24T06:49:05;100946.22;;;15.62;83.95
22333;BME280;11334;36.986;-121.936;2023-05-24T06:51:31;100938.19;;;15.62;83.92
22333;BME280;11334;36.986;-121.936;2023-05-24T06:54:02;100943.91;;;15.59;83.96
22333;BME280;11334;36.986;-121.936;2023-05-24T06:56:28;100948.59;;;15.57;84.17
22333;BME280;11334;36.986;-121.936;2023-05-24T06:58:55;100939.94;;;15.55;83.89
22333;BME280;11334;36.986;-121.936;2023-05-24T07:01:21;100958.09;;;15.60;84.07
22333;BME280;11334;36.986;-121.936;2023-05-24T07:03:47;100956.63;;;15.57;83.99
22333;BME280;11334;36.986;-121.936;2023-05-24T07:06:16;100957.16;;;15.53;84.42
22333;BME280;11334;36.986;-121.936;2023-05-24T07:08:43;100965.34;;;15.51;84.88
22333;BME280;11334;36.986;-121.936;2023-05-24T07:11:09;100959.28;;;15.57;84.62
22333;BME280;11334;36.986;-121.936;2023-05-24T07:13:35;100964.63;;;15.57;84.07
22333;BME280;11334;36.986;-121.936;2023-05-24T07:16:02;100966.81;;;15.54;84.54
22333;BME280;11334;36.986;-121.936;2023-05-24T07:18:29;100962.13;;;15.56;83.83
22333;BME280;11334;36.986;-121.936;2023-05-24T07:20:55;100959.94;;;15.59;83.05
22333;BME280;11334;36.986;-121.936;2023-05-24T07:23:21;100963.59;;;15.58;82.85
22333;BME280;11334;36.986;-121.936;2023-05-24T07:25:48;100959.47;;;15.56;82.73
22333;BME280;11334;36.986;-121.936;2023-05-24T07:28:14;100967.75;;;15.61;82.68
22333;BME280;11334;36.986;-121.936;2023-05-24T07:30:42;100962.03;;;15.64;82.05
22333;BME280;11334;36.986;-121.936;2023-05-24T07:33:09;100952.91;;;15.58;82.10
22333;BME280;11334;36.986;-121.936;2023-05-24T07:35:35;100964.63;;;15.57;82.70
22333;BME280;11334;36.986;-121.936;2023-05-24T07:38:03;100957.00;;;15.54;81.93
22333;BME280;11334;36.986;-121.936;2023-05-24T07:40:29;100964.44;;;15.59;82.23
22333;BME280;11334;36.986;-121.936;2023-05-24T07:42:55;100958.91;;;15.60;81.71
22333;BME280;11334;36.986;-121.936;2023-05-24T07:45:22;100963.97;;;15.55;82.18
22333;BME280;11334;36.986;-121.936;2023-05-24T07:47:48;100967.19;;;15.51;82.80
22333;BME280;11334;36.986;-121.936;2023-05-24T07:50:14;100963.88;;;15.49;82.93
22333;BME280;11334;36.986;-121.936;2023-05-24T07:52:41;100971.72;;;15.50;83.36
22333;BME280;11334;36.986;-121.936;2023-05-24T07:55:08;100956.34;;;15.52;83.33
22333;BME280;11334;36.986;-121.936;2023-05-24T07:57:34;100962.06;;;15.49;83.56
22333;BME280;11334;36.986;-121.936;2023-05-24T08:00:01;100956.78;;;15.56;84.58
22333;BME280;11334;36.986;-121.936;2023-05-24T08:02:34;100952.09;;;15.58;86.87
22333;BME280;11334;36.986;-121.936;2023-05-24T08:05:01;100952.84;;;15.52;88.40
22333;BME280;11334;36.986;-121.936;2023-05-24T08:07:27;100950.78;;;15.54;89.68
22333;BME280;11334;36.986;-121.936;2023-05-24T08:09:53;100961.19;;;15.49;90.66
22333;BME280;11334;36.986;-121.936;2023-05-24T08:12:19;100958.34;;;15.50;91.08
22333;BME280;11334;36.986;-121.936;2023-05-24T08:14:45;100959.38;;;15.49;91.52
22333;BME280;11334;36.986;-121.936;2023-05-24T08:17:11;100954.88;;;15.50;91.85
22333;BME280;11334;36.986;-121.936;2023-05-24T08:19:38;100954.09;;;15.42;92.72
22333;BME280;11334;36.986;-121.936;2023-05-24T08:22:04;100955.84;;;15.35;92.44
22333;BME280;11334;36.986;-121.936;2023-05-24T08:24:30;100956.19;;;15.32;93.74
22333;BME280;11334;36.986;-121.936;2023-05-24T08:26:57;100954.84;;;15.36;93.59
22333;BME280;11334;36.986;-121.936;2023-05-24T08:29:23;100954.31;;;15.40;93.14
22333;BME280;11334;36.986;-121.936;2023-05-24T08:31:50;100950.16;;;15.38;91.59
22333;BME280;11334;36.986;-121.936;2023-05-24T08:34:16;100953.81;;;15.37;92.81
22333;BME280;11334;36.986;-121.936;2023-05-24T08:36:42;100954.38;;;15.32;93.95
22333;BME280;11334;36.986;-121.936;2023-05-24T08:39:09;100952.91;;;15.30;95.17
22333;BME280;11334;36.986;-121.936;2023-05-24T08:41:35;100953.63;;;15.24;95.31
22333;BME280;11334;36.986;-121.936;2023-05-24T08:44:05;100952.91;;;15.30;93.38
22333;BME280;11334;36.986;-121.936;2023-05-24T08:46:34;100951.84;;;15.17;93.58
22333;BME280;11334;36.986;-121.936;2023-05-24T08:49:01;100957.84;;;15.18;95.04
22333;BME280;11334;36.986;-121.936;2023-05-24T08:51:31;100957.47;;;15.21;93.50
22333;BME280;11334;36.986;-121.936;2023-05-24T08:53:59;100955.34;;;15.17;93.94
22333;BME280;11334;36.986;-121.936;2023-05-24T08:56:26;100954.06;;;15.13;95.32
22333;BME280;11334;36.986;-121.936;2023-05-24T08:58:56;100950.38;;;15.14;95.55
22333;BME280;11334;36.986;-121.936;2023-05-24T09:01:25;100950.78;;;15.03;95.65
22333;BME280;11334;36.986;-121.936;2023-05-24T09:03:52;100958.41;;;15.06;96.14
22333;BME280;11334;36.986;-121.936;2023-05-24T09:06:19;100951.59;;;15.04;95.53
22333;BME280;11334;36.986;-121.936;2023-05-24T09:08:47;100955.47;;;15.01;96.11
22333;BME280;11334;36.986;-121.936;2023-05-24T09:11:17;100952.34;;;14.98;96.47
22333;BME280;11334;36.986;-121.936;2023-05-24T09:13:44;100956.66;;;14.99;96.58
22333;BME280;11334;36.986;-121.936;2023-05-24T09:16:11;100948.47;;;15.00;96.79
22333;BME280;11334;36.986;-121.936;2023-05-24T09:18:39;100945.59;;;15.02;97.46
22333;BME280;11334;36.986;-121.936;2023-05-24T09:21:09;100942.34;;;14.92;97.96
22333;BME280;11334;36.986;-121.936;2023-05-24T09:23:35;100951.22;;;14.92;97.34
22333;BME280;11334;36.986;-121.936;2023-05-24T09:26:10;100949.19;;;14.94;97.51
22333;BME280;11334;36.986;-121.936;2023-05-24T09:28:37;100958.03;;;14.95;98.01
22333;BME280;11334;36.986;-121.936;2023-05-24T09:31:03;100962.34;;;14.96;95.51
22333;BME280;11334;36.986;-121.936;2023-05-24T09:33:31;100953.22;;;14.90;94.97
22333;BME280;11334;36.986;-121.936;2023-05-24T09:35:59;100959.91;;;14.86;95.30
22333;BME280;11334;36.986;-121.936;2023-05-24T09:38:26;100970.66;;;14.79;96.58
22333;BME280;11334;36.986;-121.936;2023-05-24T09:41:07;100953.34;;;14.75;96.02
22333;BME280;11334;36.986;-121.936;2023-05-24T09:43:47;100960.72;;;14.73;96.26
22333;BME280;11334;36.986;-121.936;2023-05-24T09:46:17;100960.41;;;14.68;96.53
22333;BME280;11334;36.986;-121.936;2023-05-24T09:48:59;100960.41;;;14.68;93.59
22333;BME280;11334;36.986;-121.936;2023-05-24T09:51:28;100960.75;;;14.65;94.44
22333;BME280;11334;36.986;-121.936;2023-05-24T09:54:02;100965.97;;;14.58;95.09
22333;BME280;11334;36.986;-121.936;2023-05-24T09:56:29;100957.84;;;14.52;95.86
22333;BME280;11334;36.986;-121.936;2023-05-24T09:58:55;100954.50;;;14.50;96.97
22333;BME280;11334;36.986;-121.936;2023-05-24T10:01:24;100956.72;;;14.47;97.23
22333;BME280;11334;36.986;-121.936;2023-05-24T10:03:57;100959.50;;;14.53;96.26
22333;BME280;11334;36.986;-121.936;2023-05-24T10:06:25;100959.84;;;14.50;96.75
22333;BME280;11334;36.986;-121.936;2023-05-24T10:08:51;100962.50;;;14.50;98.16
22333;BME280;11334;36.986;-121.936;2023-05-24T10:11:19;100956.19;;;14.51;98.17
22333;BME280;11334;36.986;-121.936;2023-05-24T10:13:47;100954.34;;;14.52;98.67
22333;BME280;11334;36.986;-121.936;2023-05-24T10:16:15;100957.19;;;14.50;98.90
22333;BME280;11334;36.986;-121.936;2023-05-24T10:18:41;100953.88;;;14.48;99.55
22333;BME280;11334;36.986;-121.936;2023-05-24T10:21:08;100939.53;;;14.49;99.11
22333;BME280;11334;36.986;-121.936;2023-05-24T10:23:37;100948.13;;;14.59;99.09
22333;BME280;11334;36.986;-121.936;2023-05-24T10:26:09;100960.28;;;14.61;98.74
22333;BME280;11334;36.986;-121.936;2023-05-24T10:28:44;100956.94;;;14.59;97.85
22333;BME280;11334;36.986;-121.936;2023-05-24T10:31:18;100961.31;;;14.60;96.83
22333;BME280;11334;36.986;-121.936;2023-05-24T10:33:49;100961.47;;;14.59;94.45
22333;BME280;11334;36.986;-121.936;2023-05-24T10:36:17;100949.63;;;14.61;93.08
22333;BME280;11334;36.986;-121.936;2023-05-24T10:38:46;100956.28;;;14.57;93.79
22333;BME280;11334;36.986;-121.936;2023-05-24T10:41:13;100964.28;;;14.57;93.17
22333;BME280;11334;36.986;-121.936;2023-05-24T10:43:45;100961.75;;;14.64;90.63
22333;BME280;11334;36.986;-121.936;2023-05-24T10:46:15;100956.78;;;14.61;90.11
22333;BME280;11334;36.986;-121.936;2023-05-24T10:48:41;100950.84;;;14.51;90.47
22333;BME280;11334;36.986;-121.936;2023-05-24T10:51:28;100947.59;;;14.41;92.04
22333;BME280;11334;36.986;-121.936;2023-05-24T10:54:16;100956.94;;;14.37;92.83
22333;BME280;11334;36.986;-121.936;2023-05-24T10:56:47;100959.94;;;14.34;93.32
22333;BME280;11334;36.986;-121.936;2023-05-24T10:59:30;100958.31;;;14.33;93.67
22333;BME280;11334;36.986;-121.936;2023-05-24T11:02:03;100958.09;;;14.35;94.28
22333;BME280;11334;36.986;-121.936;2023-05-24T11:04:36;100957.94;;;14.36;94.80
22333;BME280;11334;36.986;-121.936;2023-05-24T11:07:07;100960.13;;;14.33;95.16
22333;BME280;11334;36.986;-121.936;2023-05-24T11:09:37;100966.41;;;14.40;95.91
22333;BME280;11334;36.986;-121.936;2023-05-24T11:12:14;100964.41;;;14.42;95.38
22333;BME280;11334;36.986;-121.936;2023-05-24T11:14:46;100971.06;;;14.46;94.71
22333;BME280;11334;36.986;-121.936;2023-05-24T11:17:13;100966.03;;;14.51;93.07
22333;BME280;11334;36.986;-121.936;2023-05-24T11:19:49;100939.38;;;14.43;93.68
22333;BME280;11334;36.986;-121.936;2023-05-24T11:22:17;100940.56;;;14.48;93.37
22333;BME280;11334;36.986;-121.936;2023-05-24T11:24:44;100944.03;;;14.49;93.26
22333;BME280;11334;36.986;-121.936;2023-05-24T11:27:12;100945.59;;;14.43;91.13
22333;BME280;11334;36.986;-121.936;2023-05-24T11:29:46;100943.06;;;14.42;91.30
22333;BME280;11334;36.986;-121.936;2023-05-24T11:32:18;100949.66;;;14.53;88.78
22333;BME280;11334;36.986;-121.936;2023-05-24T11:34:48;100942.19;;;14.49;88.72
22333;BME280;11334;36.986;-121.936;2023-05-24T11:37:16;100945.53;;;14.51;88.99
22333;BME280;11334;36.986;-121.936;2023-05-24T11:39:42;100941.00;;;14.52;89.02
22333;BME280;11334;36.986;-121.936;2023-05-24T11:42:08;100950.19;;;14.49;88.99
22333;BME280;11334;36.986;-121.936;2023-05-24T11:44:35;100955.69;;;14.48;89.14
22333;BME280;11334;36.986;-121.936;2023-05-24T11:47:06;100942.34;;;14.48;88.25
22333;BME280;11334;36.986;-121.936;2023-05-24T11:49:33;100956.75;;;14.39;89.96
22333;BME280;11334;36.986;-121.936;2023-05-24T11:52:00;100958.56;;;14.46;89.35
22333;BME280;11334;36.986;-121.936;2023-05-24T11:54:27;100961.03;;;14.48;89.33
22333;BME280;11334;36.986;-121.936;2023-05-24T11:56:54;100955.22;;;14.44;89.67
22333;BME280;11334;36.986;-121.936;2023-05-24T11:59:27;100947.28;;;14.36;88.68
22333;BME280;11334;36.986;-121.936;2023-05-24T12:02:03;100944.25;;;14.39;87.70
22333;BME280;11334;36.986;-121.936;2023-05-24T12:04:30;100951.22;;;14.48;82.30
22333;BME280;11334;36.986;-121.936;2023-05-24T12:06:58;100955.53;;;14.49;81.18
22333;BME280;11334;36.986;-121.936;2023-05-24T12:09:24;100953.38;;;14.45;83.91
22333;BME280;11334;36.986;-121.936;2023-05-24T12:11:51;100947.59;;;14.41;85.27
22333;BME280;11334;36.986;-121.936;2023-05-24T12:14:27;100947.28;;;14.36;85.78
22333;BME280;11334;36.986;-121.936;2023-05-24T12:16:55;100957.66;;;14.31;86.12
22333;BME280;11334;36.986;-121.936;2023-05-24T12:19:23;100946.97;;;14.31;86.40
22333;BME280;11334;36.986;-121.936;2023-05-24T12:21:55;100949.28;;;14.34;85.74
22333;BME280;11334;36.986;-121.936;2023-05-24T12:24:23;100950.31;;;14.33;86.41
22333;BME280;11334;36.986;-121.936;2023-05-24T12:26:50;100959.94;;;14.34;86.59
22333;BME280;11334;36.986;-121.936;2023-05-24T12:29:18;100955.09;;;14.38;85.32
22333;BME280;11334;36.986;-121.936;2023-05-24T12:31:47;100945.44;;;14.37;85.44
22333;BME280;11334;36.986;-121.936;2023-05-24T12:34:18;100947.75;;;14.40;85.86